Time;durP1;ratioP1;P1;durP2;ratioP2;P2;SDS_P1;SDS_P2;PMS_P1;PMS_P2;Temp;Humidity;BMP_temperature;BMP_pressure;BME280_temperature;BME280_humidity;BME280_pressure;Samples;Min_cycle;Max_cycle;Signal;HPM_P1;HPM_P2
2022/08/08 00:02:37;;;;;;;12.65;3.70;;;16.00;99.90;;;;;;5079570;28;20103;-79
2022/08/08 00:05:22;;;;;;;2.75;2.50;;;15.90;99.90;;;;;;5079899;28;20119;-78
2022/08/08 00:08:21;;;;;;;6.53;2.67;;;15.90;99.90;;;;;;5079732;28;20047;-78
2022/08/08 00:10:58;;;;;;;5.07;2.25;;;15.90;99.90;;;;;;5079611;28;20028;-78
2022/08/08 00:13:45;;;;;;;4.75;2.72;;;15.80;99.90;;;;;;5079029;28;20534;-79
2022/08/08 00:16:46;;;;;;;3.60;2.75;;;15.80;99.90;;;;;;5061501;28;20044;-78
2022/08/08 00:19:26;;;;;;;5.25;2.45;;;15.80;99.90;;;;;;4977420;28;20050;-78
2022/08/08 00:22:01;;;;;;;9.10;3.75;;;15.80;99.90;;;;;;5050173;28;20060;-79
2022/08/08 00:24:35;;;;;;;8.65;3.40;;;15.80;99.90;;;;;;5061567;28;20036;-78
2022/08/08 00:27:12;;;;;;;3.70;3.30;;;15.80;99.90;;;;;;5079047;28;20040;-78
2022/08/08 00:29:47;;;;;;;5.28;4.05;;;15.70;99.90;;;;;;5078656;28;20530;-79
2022/08/08 00:32:39;;;;;;;4.10;2.65;;;15.70;99.90;;;;;;5061304;28;20044;-78
2022/08/08 00:35:45;;;;;;;5.53;2.75;;;15.70;99.90;;;;;;5039413;28;20105;-78
2022/08/08 00:38:26;;;;;;;5.65;3.33;;;15.70;99.90;;;;;;4977065;28;20050;-78
2022/08/08 00:41:04;;;;;;;5.18;3.00;;;15.70;99.90;;;;;;5053723;28;20063;-79
2022/08/08 00:43:59;;;;;;;3.75;2.45;;;15.70;99.90;;;;;;5078463;28;20044;-78
2022/08/08 00:46:42;;;;;;;4.88;2.75;;;15.70;99.90;;;;;;5078978;28;20486;-78
2022/08/08 00:49:36;;;;;;;4.55;2.72;;;15.70;99.90;;;;;;5078762;28;20101;-78
2022/08/08 00:52:22;;;;;;;2.90;2.60;;;15.70;99.90;;;;;;5060732;28;20036;-78
2022/08/08 00:55:00;;;;;;;5.80;3.13;;;15.80;99.90;;;;;;5078794;28;20140;-79
2022/08/08 00:57:53;;;;;;;6.60;3.30;;;15.70;99.90;;;;;;5078297;28;20557;-78
2022/08/08 01:00:21;;;;;;;2.40;2.17;;;15.70;99.90;;;;;;5043933;28;20035;-78
2022/08/08 01:03:17;;;;;;;3.88;2.47;;;15.70;99.90;;;;;;5060610;28;20036;-78
2022/08/08 01:05:51;;;;;;;3.45;2.53;;;15.80;99.90;;;;;;5078473;28;20046;-78
2022/08/08 01:08:29;;;;;;;2.45;2.05;;;15.70;99.90;;;;;;5060721;28;20051;-78
2022/08/08 01:11:11;;;;;;;2.38;1.88;;;15.70;99.90;;;;;;5060456;28;20083;-79
2022/08/08 01:13:59;;;;;;;2.80;2.45;;;15.60;99.90;;;;;;5088497;22;20523;-78
2022/08/08 01:16:47;;;;;;;3.20;2.92;;;15.60;99.90;;;;;;5059206;28;20052;-78
2022/08/08 01:19:21;;;;;;;3.55;2.65;;;15.50;99.90;;;;;;5078878;28;20070;-78
2022/08/08 01:22:20;;;;;;;4.68;3.28;;;15.40;99.90;;;;;;5060740;28;20044;-78
2022/08/08 01:25:30;;;;;;;2.50;2.10;;;15.30;99.90;;;;;;5078181;28;20059;-79
2022/08/08 01:28:21;;;;;;;3.20;2.90;;;15.20;99.90;;;;;;5059797;28;20119;-78
2022/08/08 01:31:24;;;;;;;4.57;3.53;;;15.20;99.90;;;;;;5078781;28;20328;-78
2022/08/08 01:34:18;;;;;;;8.40;4.22;;;15.10;99.90;;;;;;5060398;28;20051;-79
2022/08/08 01:37:20;;;;;;;3.28;2.95;;;15.00;99.90;;;;;;5060053;28;20077;-79
2022/08/08 01:40:01;;;;;;;;;;;15.00;99.90;;;;;;5079375;28;20040;-78
2022/08/08 01:42:43;;;;;;;4.00;2.58;;;14.90;99.90;;;;;;5077427;28;19920;-78
2022/08/08 01:45:23;;;;;;;2.95;2.35;;;14.90;99.90;;;;;;5078691;28;20044;-78
2022/08/08 01:48:23;;;;;;;4.70;2.72;;;14.90;99.90;;;;;;5078715;28;20079;-79
2022/08/08 01:51:26;;;;;;;6.88;2.70;;;14.90;99.90;;;;;;5022062;28;20534;-78
2022/08/08 01:54:04;;;;;;;3.10;2.83;;;14.90;99.90;;;;;;5060000;28;20039;-78
2022/08/08 01:57:03;;;;;;;2.72;2.53;;;14.90;99.90;;;;;;5078558;28;20071;-78
2022/08/08 02:00:06;;;;;;;4.70;2.92;;;14.90;99.90;;;;;;5077588;28;20048;-78
2022/08/08 02:02:56;;;;;;;6.07;3.42;;;14.90;99.90;;;;;;5077956;28;20055;-78
2022/08/08 02:05:44;;;;;;;4.70;3.03;;;15.00;99.90;;;;;;5060323;28;20083;-78
2022/08/08 02:08:30;;;;;;;6.25;4.25;;;15.00;99.90;;;;;;5081410;28;20102;-78
2022/08/08 02:11:23;;;;;;;4.03;3.28;;;15.10;99.90;;;;;;5082017;28;20097;-78
2022/08/08 02:13:56;;;;;;;4.90;3.53;;;15.10;99.90;;;;;;5081555;28;20052;-78
2022/08/08 02:16:25;;;;;;;9.82;3.00;;;15.10;99.90;;;;;;5048382;28;20072;-78
2022/08/08 02:19:11;;;;;;;4.50;3.13;;;15.20;99.90;;;;;;5081999;28;20040;-78
2022/08/08 02:25:17;;;;;;;4.25;3.85;;;15.20;99.90;;;;;;5081775;28;20236;-78
2022/08/08 02:27:45;;;;;;;4.45;2.63;;;15.20;99.90;;;;;;5081259;28;20040;-78
2022/08/08 02:30:20;;;;;;;6.53;3.55;;;15.20;99.90;;;;;;5081287;28;20544;-79
2022/08/08 02:33:01;;;;;;;3.83;3.45;;;15.30;99.90;;;;;;5081537;28;20086;-78
2022/08/08 02:35:34;;;;;;;5.63;3.70;;;15.30;99.90;;;;;;5081551;28;20117;-78
2022/08/08 02:38:26;;;;;;;4.00;3.63;;;15.30;99.90;;;;;;5081328;28;20452;-78
2022/08/08 02:41:15;;;;;;;5.85;3.47;;;15.30;99.90;;;;;;5081875;28;20093;-78
2022/08/08 02:44:12;;;;;;;4.35;3.50;;;15.40;99.90;;;;;;4997796;28;20063;-78
2022/08/08 02:46:54;;;;;;;8.20;3.05;;;15.40;99.90;;;;;;5081894;28;20432;-78
2022/08/08 02:49:54;;;;;;;5.80;3.75;;;15.40;99.90;;;;;;5063500;28;20521;-78
2022/08/08 02:52:53;;;;;;;8.13;3.85;;;15.40;99.90;;;;;;5081084;28;20075;-78
2022/08/08 02:56:16;;;;;;;3.80;3.47;;;15.40;99.90;;;;;;5062566;28;20135;-78
2022/08/08 02:59:20;;;;;;;5.78;3.65;;;15.40;99.90;;;;;;4961904;28;20077;-78
2022/08/08 03:02:07;;;;;;;2.97;2.67;;;15.40;99.90;;;;;;4978996;28;20137;-78
2022/08/08 03:04:53;;;;;;;4.53;3.25;;;15.40;99.90;;;;;;5061806;28;20083;-78
2022/08/08 03:07:47;;;;;;;5.65;2.95;;;15.40;99.90;;;;;;5062769;28;20071;-78
2022/08/08 03:10:40;;;;;;;5.68;3.05;;;15.40;99.90;;;;;;5081465;28;20050;-78
2022/08/08 03:13:40;;;;;;;3.63;3.10;;;15.40;99.90;;;;;;5061702;28;20108;-78
2022/08/08 03:16:30;;;;;;;14.93;4.57;;;15.40;99.90;;;;;;5080689;28;20036;-78
2022/08/08 03:19:20;;;;;;;4.57;2.92;;;15.40;99.90;;;;;;5080820;28;20044;-79
2022/08/08 03:21:45;;;;;;;3.60;2.80;;;15.40;99.90;;;;;;5065356;28;20089;-78
2022/08/08 03:24:11;;;;;;;5.43;3.42;;;15.40;99.90;;;;;;5080877;28;20591;-78
2022/08/08 03:26:43;;;;;;;5.53;4.13;;;15.50;99.90;;;;;;5062229;28;20781;-79
2022/08/08 03:29:11;;;;;;;;;;;15.50;99.90;;;;;;5080299;28;20119;-78
2022/08/08 03:34:21;;;;;;;5.40;3.50;;;15.50;99.90;;;;;;5080954;28;20138;-78
2022/08/08 03:36:47;;;;;;;3.30;2.63;;;15.50;99.90;;;;;;5080367;28;20055;-79
2022/08/08 03:39:13;;;;;;;3.10;2.80;;;15.50;99.90;;;;;;5080607;28;20047;-78
2022/08/08 03:41:40;;;;;;;7.45;3.65;;;15.60;99.90;;;;;;5062246;28;20051;-78
2022/08/08 03:44:06;;;;;;;3.63;2.55;;;15.60;99.90;;;;;;5079415;28;20089;-78
2022/08/08 03:46:43;;;;;;;6.22;3.22;;;15.60;99.90;;;;;;5062256;28;20044;-79
2022/08/08 03:49:20;;;;;;;4.55;3.58;;;15.60;99.90;;;;;;5080417;28;20042;-79
2022/08/08 03:51:50;;;;;;;6.72;3.80;;;15.60;99.90;;;;;;5045573;28;20052;-78
2022/08/08 03:54:16;;;;;;;4.63;2.72;;;15.60;99.90;;;;;;5080292;28;20040;-78
2022/08/08 03:56:42;;;;;;;5.80;2.63;;;15.60;99.90;;;;;;5079767;28;20044;-78
2022/08/08 03:59:08;;;;;;;4.47;2.72;;;15.60;99.90;;;;;;5079183;28;20044;-78
2022/08/08 04:01:38;;;;;;;4.82;2.83;;;15.70;99.90;;;;;;5080155;28;20434;-78
2022/08/08 04:04:04;;;;;;;4.13;3.70;;;15.60;99.90;;;;;;5079430;28;20101;-79
2022/08/08 04:06:30;;;;;;;3.75;3.38;;;15.60;99.90;;;;;;5062171;28;20040;-78
2022/08/08 04:08:58;;;;;;;5.15;3.67;;;15.60;99.90;;;;;;5080504;28;20036;-78
2022/08/08 04:11:23;;;;;;;2.53;2.33;;;15.60;99.90;;;;;;5079594;28;20044;-78
2022/08/08 04:13:49;;;;;;;4.25;2.65;;;15.70;99.90;;;;;;5060375;28;20491;-78
2022/08/08 04:16:15;;;;;;;3.70;2.67;;;15.70;99.90;;;;;;5079693;28;20462;-78
2022/08/08 04:18:40;;;;;;;3.38;2.42;;;15.70;99.90;;;;;;5079456;28;20108;-79
2022/08/08 04:21:06;;;;;;;5.03;3.13;;;15.70;99.90;;;;;;5079675;28;20040;-78
2022/08/08 04:23:31;;;;;;;5.47;2.65;;;15.70;99.90;;;;;;5080002;28;20082;-78
2022/08/08 04:25:57;;;;;;;5.93;3.05;;;15.70;99.90;;;;;;5079405;28;20035;-79
2022/08/08 04:28:22;;;;;;;4.57;3.13;;;15.60;99.90;;;;;;5078299;28;20127;-78
2022/08/08 04:30:48;;;;;;;4.63;2.72;;;15.70;99.90;;;;;;5078719;28;20054;-79
2022/08/08 04:33:14;;;;;;;3.80;3.30;;;15.70;99.90;;;;;;5079238;28;20107;-78
2022/08/08 04:35:39;;;;;;;6.60;2.80;;;15.70;99.90;;;;;;5079654;28;20406;-78
2022/08/08 04:38:05;;;;;;;5.35;2.97;;;15.70;99.90;;;;;;5061501;28;20039;-79
2022/08/08 04:40:31;;;;;;;3.75;2.72;;;15.70;99.90;;;;;;5079307;28;20040;-78
2022/08/08 04:42:57;;;;;;;5.68;3.20;;;15.70;99.90;;;;;;5060125;28;20393;-78
2022/08/08 04:45:23;;;;;;;6.20;3.90;;;15.70;99.90;;;;;;5079384;28;20126;-78
2022/08/08 04:47:49;;;;;;;3.78;3.20;;;15.70;99.90;;;;;;5079040;28;20087;-78
2022/08/08 04:50:14;;;;;;;4.53;2.97;;;15.80;99.90;;;;;;5079126;28;20063;-78
2022/08/08 04:52:40;;;;;;;5.63;3.97;;;15.80;99.90;;;;;;5078997;28;20044;-78
2022/08/08 04:55:06;;;;;;;11.35;3.47;;;15.80;99.90;;;;;;5060608;28;20275;-78
2022/08/08 04:57:31;;;;;;;4.53;2.72;;;15.80;99.90;;;;;;5078141;28;20486;-78
2022/08/08 04:59:57;;;;;;;8.25;3.72;;;15.80;99.90;;;;;;5079021;28;20036;-78
2022/08/08 05:02:22;;;;;;;3.20;2.78;;;15.90;99.90;;;;;;5078549;28;20579;-78
2022/08/08 05:04:48;;;;;;;6.72;3.05;;;15.90;99.90;;;;;;5078771;28;20055;-79
2022/08/08 05:07:14;;;;;;;7.57;3.53;;;15.90;99.90;;;;;;5078937;28;20298;-78
2022/08/08 05:09:39;;;;;;;5.22;3.40;;;16.00;99.90;;;;;;5078738;28;20115;-78
2022/08/08 05:12:05;;;;;;;5.93;3.83;;;16.00;99.90;;;;;;5077538;28;20032;-79
2022/08/08 05:14:31;;;;;;;3.63;2.92;;;16.10;99.90;;;;;;5079114;28;20113;-79
2022/08/08 05:16:57;;;;;;;8.93;4.30;;;16.10;99.90;;;;;;5078348;28;20040;-78
2022/08/08 05:19:22;;;;;;;6.80;3.15;;;16.10;99.90;;;;;;5078583;28;20052;-79
2022/08/08 05:21:48;;;;;;;5.88;2.85;;;16.10;99.90;;;;;;5078494;28;20134;-78
2022/08/08 05:24:15;;;;;;;3.20;2.92;;;16.20;99.90;;;;;;5060048;28;20689;-79
2022/08/08 05:26:45;;;;;;;4.00;3.35;;;16.20;99.90;;;;;;5078177;28;20525;-78
2022/08/08 05:29:11;;;;;;;5.40;2.50;;;16.20;99.90;;;;;;5059642;28;20044;-78
2022/08/08 05:31:37;;;;;;;5.63;3.17;;;16.30;99.90;;;;;;5059929;28;20493;-79
2022/08/08 05:34:05;;;;;;;4.45;2.75;;;16.30;99.90;;;;;;5060646;28;20513;-79
2022/08/08 05:36:34;;;;;;;5.88;3.50;;;16.30;99.90;;;;;;5078807;28;20455;-78
2022/08/08 05:39:04;;;;;;;5.78;4.07;;;16.40;99.90;;;;;;5078542;28;20515;-78
2022/08/08 05:41:34;;;;;;;4.85;3.45;;;16.40;99.90;;;;;;5078104;28;20358;-78
2022/08/08 05:44:05;;;;;;;3.50;2.65;;;16.40;99.90;;;;;;5059616;28;20090;-79
2022/08/08 05:46:34;;;;;;;3.70;2.95;;;16.50;99.90;;;;;;5060609;28;20048;-78
2022/08/08 05:49:00;;;;;;;6.22;3.38;;;16.50;99.90;;;;;;5078258;28;20043;-78
2022/08/08 05:51:26;;;;;;;4.15;3.47;;;16.50;99.90;;;;;;5043099;28;20616;-78
2022/08/08 05:53:53;;;;;;;5.72;3.72;;;16.50;99.90;;;;;;5078504;28;20236;-79
2022/08/08 05:56:20;;;;;;;5.25;2.78;;;16.60;99.90;;;;;;5078572;28;20166;-78
2022/08/08 05:58:49;;;;;;;5.18;3.35;;;16.60;99.90;;;;;;5076939;28;20047;-78
2022/08/08 06:01:15;;;;;;;4.13;2.75;;;16.60;99.90;;;;;;5059730;28;20044;-78
2022/08/08 06:03:44;;;;;;;7.00;4.43;;;16.60;99.90;;;;;;5077528;28;20130;-78
2022/08/08 06:06:10;;;;;;;6.65;3.85;;;16.70;99.90;;;;;;5077806;28;20040;-78
2022/08/08 06:08:48;;;;;;;8.35;3.10;;;16.70;99.90;;;;;;5078384;28;20044;-78
2022/08/08 06:11:14;;;;;;;6.05;3.70;;;16.70;99.90;;;;;;5059786;28;20227;-78
2022/08/08 06:13:39;;;;;;;3.92;3.33;;;16.80;99.90;;;;;;5076830;28;20538;-78
2022/08/08 06:16:05;;;;;;;7.30;3.75;;;16.80;99.90;;;;;;5078318;28;20090;-78
2022/08/08 06:18:31;;;;;;;4.72;2.38;;;16.80;99.90;;;;;;5059706;28;20055;-79
2022/08/08 06:20:59;;;;;;;3.47;2.75;;;16.90;99.90;;;;;;5059567;28;20044;-79
2022/08/08 06:23:28;;;;;;;3.42;2.35;;;16.90;99.90;;;;;;5059619;28;20040;-78
2022/08/08 06:26:08;;;;;;;7.40;3.20;;;16.90;99.90;;;;;;5059724;28;20414;-78
2022/08/08 06:28:42;;;;;;;3.67;2.53;;;17.00;99.90;;;;;;5059425;28;20051;-78
2022/08/08 06:31:09;;;;;;;4.70;1.75;;;17.10;99.90;;;;;;5078237;28;20349;-79
2022/08/08 06:33:51;;;;;;;3.95;1.77;;;17.10;99.90;;;;;;5078431;28;20085;-79
2022/08/08 06:36:34;;;;;;;;;;;17.20;99.90;;;;;;5042829;28;20076;-79
2022/08/08 06:39:01;;;;;;;2.20;1.52;;;17.20;99.90;;;;;;5077802;28;20420;-79
2022/08/08 06:41:32;;;;;;;3.58;2.47;;;17.30;99.90;;;;;;5077580;28;20090;-78
2022/08/08 06:44:02;;;;;;;2.35;1.95;;;17.30;99.90;;;;;;5058761;28;20044;-79
2022/08/08 06:46:28;;;;;;;3.85;1.88;;;17.40;99.90;;;;;;5077146;28;20448;-79
2022/08/08 06:48:55;;;;;;;4.25;2.53;;;17.40;99.90;;;;;;5077606;28;20135;-78
2022/08/08 06:51:23;;;;;;;1.80;1.50;;;17.40;99.90;;;;;;5077712;28;20051;-79
2022/08/08 06:53:55;;;;;;;8.98;2.13;;;17.50;99.90;;;;;;5079647;28;20050;-79
2022/08/08 06:56:22;;;;;;;1.77;1.20;;;17.50;99.90;;;;;;5081169;28;20429;-79
2022/08/08 06:58:47;;;;;;;1.75;1.40;;;17.50;99.90;;;;;;5062223;28;20048;-79
2022/08/08 07:01:15;;;;;;;1.48;0.90;;;17.60;99.90;;;;;;5080993;28;20426;-79
2022/08/08 07:04:05;;;;;;;1.58;1.15;;;17.60;99.90;;;;;;5062915;28;20048;-79
2022/08/08 07:06:36;;;;;;;3.42;1.83;;;17.60;99.90;;;;;;5080464;28;20410;-79
2022/08/08 07:09:10;;;;;;;1.00;1.00;;;17.60;99.90;;;;;;5081155;28;20055;-79
2022/08/08 07:11:41;;;;;;;4.32;2.33;;;17.70;99.90;;;;;;5080006;28;20044;-79
2022/08/08 07:14:15;;;;;;;1.38;1.27;;;17.70;99.90;;;;;;5081265;28;20265;-79
2022/08/08 07:16:44;;;;;;;1.42;0.80;;;17.60;99.90;;;;;;5062673;28;20044;-79
2022/08/08 07:19:31;;;;;;;4.93;1.58;;;17.70;99.90;;;;;;5063276;28;20043;-79
2022/08/08 07:22:04;;;;;;;12.23;2.13;;;17.70;99.90;;;;;;5080127;28;20121;-78
2022/08/08 07:24:43;;;;;;;2.10;1.25;;;17.70;99.90;;;;;;5062412;28;20051;-78
2022/08/08 07:27:11;;;;;;;3.20;1.50;;;17.70;99.90;;;;;;5079342;28;20042;-78
2022/08/08 07:29:38;;;;;;;3.60;1.55;;;17.70;99.90;;;;;;5081388;28;20051;-78
2022/08/08 07:32:05;;;;;;;2.03;1.50;;;17.70;99.90;;;;;;5080599;28;20195;-78
2022/08/08 07:34:35;;;;;;;3.92;1.42;;;17.70;99.90;;;;;;5080115;28;20253;-78
2022/08/08 07:37:03;;;;;;;3.58;1.58;;;17.80;99.90;;;;;;5080338;28;20036;-78
2022/08/08 07:39:30;;;;;;;3.00;1.73;;;17.80;99.90;;;;;;5080491;28;20051;-78
2022/08/08 07:42:02;;;;;;;1.23;1.13;;;17.80;99.90;;;;;;5078842;28;20048;-78
2022/08/08 07:44:27;;;;;;;2.78;1.85;;;17.80;99.90;;;;;;5080282;28;20036;-78
2022/08/08 07:46:53;;;;;;;1.60;1.48;;;17.80;99.90;;;;;;5045012;28;20486;-78
2022/08/08 07:49:19;;;;;;;1.73;1.25;;;17.90;99.90;;;;;;5080119;28;20044;-79
2022/08/08 07:51:45;;;;;;;1.98;1.38;;;17.90;99.90;;;;;;5080117;28;20504;-78
2022/08/08 07:54:39;;;;;;;2.05;1.40;;;18.00;99.90;;;;;;5080215;28;20055;-79
2022/08/08 07:57:31;;;;;;;2.85;1.52;;;18.00;99.90;;;;;;5078941;28;20044;-78
2022/08/08 08:00:13;;;;;;;3.38;2.20;;;18.10;99.90;;;;;;5080249;28;20316;-78
2022/08/08 08:03:02;;;;;;;1.88;1.77;;;18.10;99.90;;;;;;5079695;28;20123;-78
2022/08/08 08:05:29;;;;;;;4.32;1.67;;;18.20;99.90;;;;;;5064130;28;20308;-78
2022/08/08 08:08:17;;;;;;;2.47;2.20;;;18.20;99.90;;;;;;5079386;28;20051;-78
2022/08/08 08:10:45;;;;;;;1.85;1.33;;;18.20;99.90;;;;;;5080190;28;20119;-78
2022/08/08 08:13:39;;;;;;;2.38;1.88;;;18.20;99.90;;;;;;5060253;28;20059;-79
2022/08/08 08:16:07;;;;;;;2.03;1.48;;;18.30;99.90;;;;;;5079204;28;20490;-78
2022/08/08 08:19:02;;;;;;;1.92;1.70;;;18.40;99.90;;;;;;5079635;28;20032;-78
2022/08/08 08:21:32;;;;;;;3.92;1.63;;;18.40;99.90;;;;;;5079005;28;20040;-78
2022/08/08 08:24:00;;;;;;;2.80;1.40;;;18.40;99.90;;;;;;5079395;28;20040;-78
2022/08/08 08:26:26;;;;;;;1.92;1.60;;;18.40;99.90;;;;;;5059876;28;20526;-78
2022/08/08 08:28:51;;;;;;;1.40;1.30;;;18.40;99.90;;;;;;5079481;28;20271;-79
2022/08/08 08:31:17;;;;;;;1.92;1.67;;;18.40;99.90;;;;;;5079440;28;20044;-78
2022/08/08 08:33:43;;;;;;;4.00;1.52;;;18.40;99.90;;;;;;5079509;28;20032;-78
2022/08/08 08:36:11;;;;;;;6.15;1.40;;;18.40;99.90;;;;;;5079278;28;20047;-78
2022/08/08 08:38:38;;;;;;;5.18;1.70;;;18.40;99.90;;;;;;5079725;28;20051;-78
2022/08/08 08:41:05;;;;;;;2.92;2.00;;;18.50;99.90;;;;;;5060630;28;20052;-78
2022/08/08 08:43:33;;;;;;;2.08;1.38;;;18.50;99.90;;;;;;5078577;28;20043;-78
2022/08/08 08:45:59;;;;;;;2.13;1.75;;;18.50;99.90;;;;;;5079206;28;20098;-78
2022/08/08 08:48:27;;;;;;;3.05;2.22;;;18.60;99.90;;;;;;5078790;28;20421;-78
2022/08/08 08:50:54;;;;;;;1.25;1.15;;;18.60;99.90;;;;;;5079102;28;20077;-78
2022/08/08 08:53:21;;;;;;;1.67;1.45;;;18.60;99.90;;;;;;5079196;28;20048;-78
2022/08/08 08:55:48;;;;;;;3.38;2.22;;;18.60;99.90;;;;;;5078868;28;20043;-78
2022/08/08 08:58:29;;;;;;;1.40;1.30;;;18.60;99.90;;;;;;5078448;28;20036;-79
2022/08/08 09:00:58;;;;;;;2.10;1.80;;;18.60;99.90;;;;;;5078382;28;20048;-78
2022/08/08 09:03:26;;;;;;;3.95;1.75;;;18.60;99.90;;;;;;5078607;28;20510;-78
2022/08/08 09:05:53;;;;;;;7.20;1.75;;;18.60;99.90;;;;;;5079122;28;20123;-79
2022/08/08 09:08:21;;;;;;;2.85;2.03;;;18.60;99.90;;;;;;5078509;28;20040;-78
2022/08/08 09:10:47;;;;;;;3.38;1.73;;;18.60;99.90;;;;;;5079113;28;20094;-78
2022/08/08 09:13:15;;;;;;;2.22;1.85;;;18.70;99.90;;;;;;5078028;28;20432;-78
2022/08/08 09:15:41;;;;;;;2.38;1.85;;;18.70;99.90;;;;;;5077414;28;20403;-78
2022/08/08 09:18:07;;;;;;;6.57;2.15;;;18.70;99.90;;;;;;5078602;28;20032;-78
2022/08/08 09:20:33;;;;;;;3.38;1.83;;;18.70;99.90;;;;;;5078728;28;20043;-78
2022/08/08 09:23:00;;;;;;;1.77;1.55;;;18.70;99.90;;;;;;5078140;28;20126;-79
2022/08/08 09:25:26;;;;;;;3.70;2.38;;;18.80;99.90;;;;;;5043451;28;20432;-78
2022/08/08 09:27:52;;;;;;;3.28;1.38;;;18.80;99.90;;;;;;5077553;28;20048;-79
2022/08/08 09:30:18;;;;;;;2.00;1.80;;;18.80;99.90;;;;;;5078255;28;20518;-79
2022/08/08 09:32:51;;;;;;;2.20;2.00;;;18.90;99.90;;;;;;5078748;28;20378;-78
2022/08/08 09:35:27;;;;;;;1.92;1.45;;;18.90;99.90;;;;;;5078809;28;20251;-78
2022/08/08 09:38:00;;;;;;;2.35;1.90;;;18.90;99.90;;;;;;5078435;28;20078;-79
2022/08/08 09:40:27;;;;;;;3.40;1.85;;;19.00;99.90;;;;;;5078094;28;20044;-78
2022/08/08 09:43:19;;;;;;;3.38;1.90;;;19.00;99.90;;;;;;5059022;28;20056;-78
2022/08/08 09:46:00;;;;;;;2.23;2.03;;;19.00;99.90;;;;;;5078241;28;20067;-79
2022/08/08 09:48:29;;;;;;;2.58;1.98;;;19.10;99.90;;;;;;5078267;28;20040;-79
2022/08/08 09:50:57;;;;;;;1.60;1.50;;;19.20;99.90;;;;;;5077897;28;20040;-79
2022/08/08 09:53:31;;;;;;;2.90;1.55;;;19.20;99.90;;;;;;5078096;28;20068;-78
2022/08/08 09:55:57;;;;;;;3.78;1.65;;;19.20;99.90;;;;;;5078480;28;20044;-79
2022/08/08 09:58:24;;;;;;;2.03;1.75;;;19.30;99.90;;;;;;5076776;28;20074;-78
2022/08/08 10:00:53;;;;;;;3.38;1.60;;;19.30;99.90;;;;;;5078646;28;20087;-78
2022/08/08 10:03:20;;;;;;;2.10;1.30;;;19.40;99.90;;;;;;5078668;28;20574;-78
2022/08/08 10:05:46;;;;;;;4.00;2.33;;;19.40;99.90;;;;;;5078251;28;20613;-79
2022/08/08 10:08:11;;;;;;;4.20;1.83;;;19.40;99.90;;;;;;5078020;28;20186;-78
2022/08/08 10:10:40;;;;;;;2.03;1.75;;;19.40;99.90;;;;;;5059938;28;20036;-79
2022/08/08 10:13:28;;;;;;;2.55;1.90;;;19.50;99.90;;;;;;5077244;28;20270;-79
2022/08/08 10:15:55;;;;;;;2.35;2.15;;;19.60;99.90;;;;;;5077622;28;20188;-78
2022/08/08 10:18:33;;;;;;;1.40;1.30;;;19.60;99.90;;;;;;5060185;28;20095;-78
2022/08/08 10:21:04;;;;;;;1.92;1.75;;;19.70;99.90;;;;;;5077821;28;20555;-78
2022/08/08 10:23:48;;;;;;;1.20;1.10;;;19.70;99.90;;;;;;5077865;28;20044;-78
2022/08/08 10:26:34;;;;;;;2.60;1.80;;;19.80;99.90;;;;;;5076874;28;20115;-78
2022/08/08 10:29:06;;;;;;;2.67;1.23;;;19.90;99.90;;;;;;5081337;28;20124;-78
2022/08/08 10:34:19;;;;;;;2.83;1.65;;;20.00;99.90;;;;;;5082198;28;20059;-79
2022/08/08 10:36:46;;;;;;;1.40;1.27;;;20.10;99.90;;;;;;5063207;28;20052;-79
2022/08/08 10:39:21;;;;;;;1.40;1.30;;;20.10;99.90;;;;;;5081501;28;20059;-79
2022/08/08 10:42:06;;;;;;;1.40;1.30;;;20.10;99.90;;;;;;5063536;28;20050;-79
2022/08/08 10:44:39;;;;;;;3.03;1.35;;;20.20;99.90;;;;;;5063052;28;20075;-79
2022/08/08 10:47:19;;;;;;;3.45;1.30;;;20.20;99.90;;;;;;5081240;28;20043;-79
2022/08/08 10:49:53;;;;;;;2.78;1.33;;;20.20;99.90;;;;;;5081551;28;20122;-78
2022/08/08 10:52:41;;;;;;;1.40;1.30;;;20.30;99.90;;;;;;5081227;28;20048;-79
2022/08/08 10:55:13;;;;;;;1.73;1.60;;;20.30;99.90;;;;;;5081113;28;20046;-78
2022/08/08 10:57:41;;;;;;;;;;;20.40;99.90;;;;;;5080794;28;20086;-79
2022/08/08 11:00:09;;;;;;;3.30;1.23;;;20.40;99.90;;;;;;5063113;28;20429;-79
2022/08/08 11:02:35;;;;;;;1.20;1.02;;;20.40;99.90;;;;;;5081317;28;20297;-79
2022/08/08 11:05:05;;;;;;;3.28;1.20;;;20.40;99.90;;;;;;5080810;28;20040;-79
2022/08/08 11:07:33;;;;;;;4.32;1.33;;;20.50;99.90;;;;;;5080948;28;20052;-79
2022/08/08 11:10:05;;;;;;;1.27;1.13;;;20.50;99.90;;;;;;5062852;28;20047;-79
2022/08/08 11:12:31;;;;;;;;;;;20.70;99.90;;;;;;5080283;28;20083;-79
2022/08/08 11:15:01;;;;;;;5.55;1.52;;;20.70;99.90;;;;;;5081006;28;19973;-78
2022/08/08 11:17:29;;;;;;;1.73;1.20;;;20.80;99.90;;;;;;5080446;28;20091;-78
2022/08/08 11:19:55;;;;;;;1.75;1.65;;;20.80;99.90;;;;;;5080599;28;20101;-78
2022/08/08 11:22:31;;;;;;;6.85;2.33;;;20.90;99.90;;;;;;5081130;28;20048;-79
2022/08/08 11:25:01;;;;;;;3.05;1.45;;;21.00;99.90;;;;;;5080408;28;20071;-79
2022/08/08 11:27:33;;;;;;;3.17;1.30;;;21.00;99.90;;;;;;5080107;28;20040;-79
2022/08/08 11:30:01;;;;;;;1.03;1.03;;;21.00;99.90;;;;;;5080411;28;20087;-79
2022/08/08 11:32:30;;;;;;;1.63;1.15;;;21.00;99.90;;;;;;5080656;28;20273;-78
2022/08/08 11:35:10;;;;;;;5.30;1.52;;;21.00;99.90;;;;;;5062323;28;20109;-79
2022/08/08 11:37:38;;;;;;;0.70;0.70;;;21.00;99.90;;;;;;5080633;28;20028;-78
2022/08/08 11:40:06;;;;;;;6.05;1.30;;;21.00;99.90;;;;;;5080026;28;20051;-79
2022/08/08 11:42:33;;;;;;;1.35;1.25;;;21.00;99.90;;;;;;5079156;28;20054;-79
2022/08/08 11:44:59;;;;;;;1.20;0.95;;;21.00;99.90;;;;;;5080347;28;20040;-79
2022/08/08 11:47:25;;;;;;;2.75;1.35;;;21.00;99.90;;;;;;5080974;28;20051;-79
2022/08/08 11:49:56;;;;;;;0.77;0.77;;;21.10;99.90;;;;;;5080526;28;20040;-78
2022/08/08 11:52:23;;;;;;;4.20;0.70;;;21.00;99.90;;;;;;5062268;28;20449;-79
2022/08/08 11:54:49;;;;;;;1.05;0.82;;;21.00;99.90;;;;;;5079500;28;20488;-78
2022/08/08 11:57:27;;;;;;;1.30;0.80;;;21.10;99.90;;;;;;5078893;28;20043;-79
2022/08/08 11:59:56;;;;;;;1.17;0.85;;;21.10;99.90;;;;;;5080471;28;20059;-79
2022/08/08 12:02:26;;;;;;;2.97;1.20;;;21.10;99.90;;;;;;5061757;28;20048;-79
2022/08/08 12:05:05;;;;;;;2.60;1.33;;;21.10;99.90;;;;;;5062563;28;20036;-79
2022/08/08 12:07:41;;;;;;;1.83;0.90;;;21.20;99.90;;;;;;5079616;28;20079;-79
2022/08/08 12:10:12;;;;;;;4.03;1.38;;;21.20;99.90;;;;;;5079740;28;20703;-79
2022/08/08 12:12:45;;;;;;;2.00;1.43;;;21.20;99.90;;;;;;5078122;28;20094;-79
2022/08/08 12:15:12;;;;;;;2.10;0.75;;;21.30;99.90;;;;;;5079824;28;20596;-79
2022/08/08 12:17:40;;;;;;;1.10;0.98;;;21.30;99.90;;;;;;5079782;28;20040;-79
2022/08/08 12:20:07;;;;;;;0.80;0.80;;;21.40;99.90;;;;;;5079377;28;20112;-79
2022/08/08 12:22:44;;;;;;;0.93;0.82;;;21.40;99.90;;;;;;5079490;28;20388;-79
2022/08/08 12:25:19;;;;;;;1.33;1.08;;;21.40;99.90;;;;;;5078713;28;20497;-78
2022/08/08 12:27:44;;;;;;;1.27;1.20;;;21.40;99.90;;;;;;5079046;28;20071;-78
2022/08/08 12:30:10;;;;;;;0.95;0.73;;;21.30;99.90;;;;;;5079806;28;20529;-78
2022/08/08 12:32:46;;;;;;;1.20;0.98;;;21.30;99.90;;;;;;5079257;28;20139;-79
2022/08/08 12:35:20;;;;;;;1.30;1.20;;;21.30;99.90;;;;;;5079681;28;20286;-78
2022/08/08 12:38:05;;;;;;;4.55;1.23;;;21.30;99.90;;;;;;5078963;28;20387;-78
2022/08/08 12:40:46;;;;;;;0.70;0.70;;;21.30;99.90;;;;;;5079342;28;20044;-79
2022/08/08 12:43:14;;;;;;;0.90;0.90;;;21.30;99.90;;;;;;5079191;28;20363;-79
2022/08/08 12:45:43;;;;;;;2.65;1.25;;;21.40;99.90;;;;;;5061256;28;20320;-78
2022/08/08 12:48:23;;;;;;;1.55;0.80;;;21.40;99.90;;;;;;5060542;28;20122;-79
2022/08/08 12:50:54;;;;;;;7.32;1.25;;;21.40;99.90;;;;;;5078156;28;20157;-79
2022/08/08 12:53:22;;;;;;;1.33;1.13;;;21.50;99.90;;;;;;5079138;28;20086;-78
2022/08/08 12:56:08;;;;;;;0.95;0.93;;;21.50;99.90;;;;;;5078265;28;20290;-79
2022/08/08 12:58:51;;;;;;;1.10;1.00;;;21.50;99.90;;;;;;5060333;28;20052;-78
2022/08/08 13:01:17;;;;;;;1.40;1.17;;;21.50;99.90;;;;;;5078595;28;20400;-78
2022/08/08 13:03:48;;;;;;;1.90;1.33;;;21.60;99.90;;;;;;5078742;28;20616;-79
2022/08/08 13:06:16;;;;;;;1.42;1.15;;;21.60;99.90;;;;;;5060689;28;20043;-79
2022/08/08 13:08:50;;;;;;;2.85;1.85;;;21.60;99.90;;;;;;5078615;28;20165;-78
2022/08/08 13:11:24;;;;;;;1.92;1.30;;;21.60;99.90;;;;;;5077533;28;20071;-79
2022/08/08 13:14:11;;;;;;;1.17;0.82;;;21.60;99.90;;;;;;5060340;28;20205;-78
2022/08/08 13:16:38;;;;;;;0.85;0.85;;;21.60;99.90;;;;;;5078577;28;20143;-79
2022/08/08 13:19:07;;;;;;;1.48;1.30;;;21.60;99.90;;;;;;5078885;28;20040;-79
2022/08/08 13:21:46;;;;;;;3.28;1.33;;;21.60;99.90;;;;;;5078366;28;20045;-78
2022/08/08 13:24:13;;;;;;;1.35;1.25;;;21.50;99.90;;;;;;5078616;28;20044;-78
2022/08/08 13:26:39;;;;;;;0.93;0.93;;;21.50;99.90;;;;;;5077154;28;20361;-79
2022/08/08 13:29:12;;;;;;;2.88;1.25;;;21.40;99.90;;;;;;5078521;28;20549;-78
2022/08/08 13:31:51;;;;;;;1.50;1.40;;;21.40;99.90;;;;;;5078294;28;20097;-78
2022/08/08 13:34:21;;;;;;;2.78;1.45;;;21.30;99.90;;;;;;5078333;28;20467;-78